Brandon Campbell

Olheiro-Chefe - Adelaide United
17 Jul 2027
Sábado
Processo

Personalidade

Adaptabilidade (1) Ambição (7) Controvérsia (15) Lealdade (6) Pressão (15) Profissionalismo (12) Espírito Esportivo (8) Temperamento (1)

Perfil

Estilo de Treinamento Democrático
Licença Continental Pro
Determinação 7
Gestão de Pessoas 3
Motivação 8
Disciplina 10
Satisfação no Trabalho
49%
Fadiga
0%
Função Olheiro-Chefe
Salário 12.5K p/s
Contrato 14.03.2028

Desempenho

Comportamento Normal
Eficácia do Treinamento
14%
Desenvolvimento do Jogador
30%
Prevenção de Lesões
45%
Implementação Tática
25%

Eventos Recentes

Participou de uma reunião de recrutamento 7d atrás
Participou de uma reunião de recrutamento 7d atrás
Participou de uma reunião de recrutamento 14d atrás
Participou de uma reunião de recrutamento 14d atrás
Participou de uma reunião de recrutamento 21d atrás
Recomendou um alvo de transferência 21d atrás
Participou de uma reunião de recrutamento 21d atrás
Participou de uma reunião de recrutamento 28d atrás

Monitorando agora

121
Jogador Clube Status Habilidade Confiança Observado Última observação Último voto
Nathan Amanatidis Brisbane Roar Perdido 85 / 88 65% 1 02.06.2027 Aprovar
Medin Memeti Melbourne City Perdido 105 / 112 65% 1 01.06.2027 -
Lewis McCann Fleetwood Town Ativo 103 / 97 40% 2 31.05.2027 -
Matthew Sorinola Exeter City Ativo 110 / 110 40% 1 31.05.2027 -
Ethan Williams Peterborough United Ativo 117 / 115 40% 1 31.05.2027 -
Mauro Rodrigues Botev Plovdiv Ativo 114 / 108 40% 2 25.01.2027 -
Mohamed Brahimi CSKA Sofia Ativo 119 / 122 40% 1 11.01.2027 -
Aljoša Matko Ujpest Ativo 109 / 126 40% 1 31.12.2026 -
Szabolcs Szoboszlai Haladas Ativo 137 / 144 40% 1 30.12.2026 Mais informações
Léo Pereira CSKA Sofia Ativo 123 / 134 40% 1 29.12.2026 -
Reda Khadra Qarabag Ativo 119 / 134 40% 1 28.12.2026 Mais informações
Nathan Lobo Auckland City Ativo 92 / 99 40% 1 28.12.2026 -
Armstrong Oko-Flex Levski Ativo 114 / 116 40% 1 27.12.2026 -
Samuel Kalu Botev Plovdiv Ativo 121 / 119 40% 5 26.12.2026 -
Azeem Abdulai Leyton Orient Ativo 112 / 109 40% 1 26.12.2026 -
Charles M'Mombwa Zabbar St. Patrick Ativo 101 / 88 40% 1 25.12.2026 -
Kevin Halabaku Hibernians Ativo 90 / 101 40% 2 24.12.2026 -
Ádám Kovácsik Paksi Ativo 88 / 102 40% 1 23.12.2026 -
Deklan Colvey Waitakere United Ativo 58 / 76 40% 1 23.12.2026 -
Anatoli Gospodinov Arda Ativo 116 / 114 40% 1 22.12.2026 -
Ryan Longman Wrexham Ativo 118 / 113 40% 1 20.12.2026 Mais informações
Islam Imamov SKA Khabarovsk Ativo 92 / 92 40% 1 20.12.2026 -
Vitaly Gudiev Akron Ativo 121 / 100 40% 1 20.12.2026 -
Ammar Ramadan DAC Dunajska Streda Ativo 134 / 126 40% 2 17.12.2026 -
Nhayson Tarxien Rainbows Ativo 87 / 86 40% 2 17.12.2026 -
Edoardo Colombo Gzira United Ativo 79 / 82 40% 1 17.12.2026 -
Ivan Lomaev Ufa Ativo 118 / 96 40% 1 17.12.2026 -
Jere Vrcić Birkirkara Ativo 100 / 85 40% 3 15.12.2026 -
Denis Genreau Melbourne Victory Ativo 117 / 114 40% 1 15.12.2026 -
Rafa Santos Birkirkara Ativo 87 / 87 40% 2 14.12.2026 -
Ayom Majok Zabbar St. Patrick Ativo 85 / 81 40% 1 13.12.2026 -
Josh Kelly Zlate Moravce Ativo 80 / 76 40% 1 12.12.2026 -
Darko Todorović Fakel Ativo 101 / 123 40% 1 12.12.2026 -
Gonzalo Gamarra Floriana Ativo 102 / 107 40% 2 10.12.2026 -
Vitinho Naxxar Lions Ativo 89 / 90 40% 1 10.12.2026 -
Jack Vale Spartak Myjava Ativo 85 / 79 40% 1 09.12.2026 -
Kléri Serber Hamrun Spartans Ativo 110 / 97 40% 1 08.12.2026 -
Leandro Lacunza Hibernians Ativo 102 / 92 40% 1 08.12.2026 -
Yeangel Montero Naxxar Lions Ativo 105 / 108 40% 1 06.12.2026 -
Maicon Levski Ativo 131 / 116 40% 1 05.12.2026 -
Benjamin Twum Lokomotivi Ativo 81 / 84 40% 1 03.12.2026 -
Dan Crowley Milton Keynes Dons Ativo 107 / 94 40% 2 30.11.2026 -
Suleiman Camara Slovan Bratislava Ativo 135 / 135 40% 3 29.11.2026 -
Kelechi Nwakali Barnsley Ativo 111 / 97 40% 2 29.11.2026 -
Christoffer Mafoumbi Marsaxlokk Ativo 93 / 86 40% 2 28.11.2026 -
Denver Hume Fleetwood Town Ativo 106 / 101 40% 1 28.11.2026 -
Chris Brady Bayer Leverkusen Ativo 135 / 134 40% 1 28.11.2026 -
Ibrahim Cissoko Zwolle Ativo 124 / 120 40% 3 25.11.2026 -
Alen Kurtalić Floriana Ativo 90 / 95 40% 1 24.11.2026 -
Lewis Richards Crawley Town Ativo 90 / 99 40% 1 23.11.2026 -
Paul Glatzel Swindon Town Ativo 86 / 102 40% 1 23.11.2026 -
Andy Lyons Blackpool Ativo 92 / 96 40% 1 22.11.2026 -
Robbie Gotts Doncaster Rovers Ativo 95 / 94 40% 1 22.11.2026 -
Daniel Harvie Wycombe Wanderers Ativo 115 / 112 40% 1 20.11.2026 -
Jack Lankester Crewe Alexandra Ativo 105 / 99 40% 1 20.11.2026 -
Svetoslav Vutsov Levski Ativo 129 / 119 40% 2 19.11.2026 -
Omri Glazer Maccabi Haifa Ativo 116 / 133 40% 1 19.11.2026 -
Markus Kuster Paralimni Ativo 120 / 121 40% 1 16.11.2026 -
Agustín Lastra Estudiantes Ativo 98 / 108 40% 1 16.11.2026 -
Dario Vizinger NK Maribor Ativo 103 / 109 40% 1 14.11.2026 -
Hidde ter Avest Oxford United Ativo 125 / 121 40% 1 12.11.2026 -
Kyreece Lisbie Colchester United Ativo 116 / 114 40% 1 11.11.2026 -
Conor Tracey Auckland City Ativo 91 / 77 40% 2 10.11.2026 -
Brian Gambarte Sliema Wanderers Ativo 90 / 97 40% 1 10.11.2026 -
Stephen Humphrys Bradford City Ativo 104 / 102 40% 1 10.11.2026 -
Luke McGee Tranmere Rovers Ativo 102 / 105 40% 1 10.11.2026 -
Josh Benson Rotherham United Ativo 115 / 98 40% 1 08.11.2026 -
Rashed Al-Tumi Birkirkara Ativo 86 / 76 40% 2 05.11.2026 -
Kamil Conteh Bristol Rovers Ativo 97 / 111 40% 1 04.11.2026 -
Corey O'Keeffe Barnsley Ativo 112 / 104 40% 1 04.11.2026 -
Dominik Takáč Slovan Bratislava Ativo 122 / 142 40% 3 02.11.2026 -
Luka Baš Koper Ativo 118 / 115 40% 1 02.11.2026 -
Jens Petter Hauge Bodo/Glimt Ativo 140 / 126 40% 1 02.11.2026 -
Wesley Tarxien Rainbows Ativo 103 / 88 40% 1 02.11.2026 -
Viktor Johansson Stoke City Ativo 133 / 129 40% 4 31.10.2026 -
Samu Maccabi Netanya Ativo 120 / 124 40% 2 31.10.2026 -
Guilherme Cioletti Floriana Ativo 87 / 89 40% 1 29.10.2026 -
Peter Leeuwenburgh Apollon Ativo 117 / 120 40% 1 29.10.2026 -
Samuel Sahin-Radlinger Austria Wien Ativo 111 / 125 40% 3 27.10.2026 -
Jacob Poytress Rodina M Ativo 79 / 76 40% 1 27.10.2026 -
Péter Szappanos Ujpest Ativo 101 / 108 40% 2 25.10.2026 -
Žiga Frelih NK Celje Ativo 126 / 99 40% 1 25.10.2026 -
János Uram Vasas Ativo 110 / 95 40% 1 24.10.2026 -
Charlie Casper Portsmouth Ativo 78 / 93 40% 1 23.10.2026 -
Samuel Brolin Kalmar FF Ativo 118 / 100 40% 2 22.10.2026 -
Filip Marschall Stevenage Ativo 109 / 109 40% 1 21.10.2026 -
Sergey Volkov Rodina Ativo 110 / 117 40% 1 21.10.2026 -
Cristopher Varela Deportivo La Guaira Ativo 124 / 114 40% 1 19.10.2026 -
Chris Tuiloma Southern United Ativo 81 / 86 40% 1 19.10.2026 -
Joaquín Fernández River Plate Ativo 80 / 71 40% 1 18.10.2026 -
Luke Southwood Bristol Rovers Ativo 108 / 93 40% 2 17.10.2026 -
Oscar Hedvall Valerenga Ativo 125 / 113 40% 1 16.10.2026 -
Lawrence Thomas Western Sydney Wanderers Ativo 108 / 109 40% 2 15.10.2026 -
Alejandro Araque Deportivo Tachira Ativo 125 / 121 40% 1 14.10.2026 -
Alexandr Selikhov Ural Ativo 132 / 121 40% 2 13.10.2026 -
Olufemi Kayode Metta/LU Ativo 81 / 74 40% 3 09.10.2026 -
Filip Kurto Sydney FC Ativo 104 / 113 40% 1 09.10.2026 -
Célio Hamrun Spartans Ativo 81 / 66 40% 1 08.10.2026 -
Fedor Lapoukhov CSKA Sofia Ativo 110 / 125 40% 1 06.10.2026 -
Martin Vantruba Spartak Trnava Ativo 114 / 104 40% 2 05.10.2026 -
Akpan Udoh Mosta Ativo 87 / 71 40% 1 05.10.2026 -
Álvaro Fernández Deportivo La Coruña Ativo 133 / 126 40% 2 03.10.2026 -
Winston Garbett Canterbury United Ativo 66 / 78 40% 1 03.10.2026 -
Oliver Sail Auckland FC Ativo 114 / 104 40% 3 02.10.2026 -
Noah James Team Wellington Ativo 84 / 99 40% 2 01.10.2026 -
Jakub Przewoźny Millwall Ativo 87 / 86 40% 1 25.09.2026 -
Pablo Picón Floriana Ativo 71 / 76 40% 1 23.09.2026 -
Dermot Mee Oxford United Ativo 80 / 89 40% 1 23.09.2026 -
Michael Kelly Accrington Stanley Ativo 74 / 67 40% 2 22.09.2026 -
Pontus Dahlberg Lillestrom Ativo 108 / 119 40% 1 21.09.2026 -
Ellery Balcombe Brentford Ativo 104 / 107 40% 1 19.09.2026 -
Nathan Garrow Auckland City Ativo 69 / 78 40% 1 18.09.2026 -
Dean Bouzanis Brisbane Roar Ativo 105 / 98 40% 1 17.09.2026 -
Liam Coyne Luton Town Ativo 80 / 87 40% 1 16.09.2026 -
George Murray-Jones Nottingham Forest Ativo 81 / 87 40% 1 16.09.2026 -
James Wright Portsmouth Ativo 83 / 88 40% 1 09.09.2026 -
Matthew Sutton Perth Glory Ativo 93 / 102 40% 1 08.09.2026 -
Hendrik Bonmann Ludogorets Ativo 130 / 123 40% 1 05.09.2026 -
Tom Smith Chertanovo Ativo 62 / 79 40% 1 03.09.2026 -
Owen Foster Millwall Ativo 73 / 89 40% 1 03.09.2026 -
Lucas Bruera Carabobo Ativo 114 / 131 40% 1 01.09.2026 -